Time;durP1;ratioP1;P1;durP2;ratioP2;P2;SDS_P1;SDS_P2;PMS_P1;PMS_P2;Temp;Humidity;BMP_temperature;BMP_pressure;BME280_temperature;BME280_humidity;BME280_pressure;Samples;Min_cycle;Max_cycle;Signal;HPM_P1;HPM_P2
2022/04/07 00:00:48;;;;;;;6.32;4.60;;;;;;;1.22;78.02;98629.31;5026165;28;20310;-59
2022/04/07 00:03:15;;;;;;;5.70;4.47;;;;;;;1.12;77.93;98622.53;5025774;28;20026;-60
2022/04/07 00:05:40;;;;;;;5.95;3.95;;;;;;;1.09;78.43;98622.53;5025892;28;20030;-58
2022/04/07 00:08:06;;;;;;;5.50;4.35;;;;;;;1.20;78.26;98634.41;5025969;28;20259;-58
2022/04/07 00:10:34;;;;;;;5.55;4.13;;;;;;;1.06;78.20;98613.19;5028737;28;20116;-58
2022/04/07 00:13:00;;;;;;;5.22;4.15;;;;;;;1.22;78.30;98638.66;5032939;28;20017;-58
2022/04/07 00:15:26;;;;;;;6.25;4.00;;;;;;;1.20;78.51;98642.06;5043131;28;20028;-58
2022/04/07 00:17:52;;;;;;;6.97;4.80;;;;;;;1.08;78.54;98639.50;5025441;28;20080;-59
2022/04/07 00:20:37;;;;;;;7.82;5.00;;;;;;;0.95;79.44;98625.91;5024936;28;20025;-58
2022/04/07 00:23:03;;;;;;;7.53;4.70;;;;;;;0.99;79.76;98632.72;5025879;28;20085;-58
2022/04/07 00:25:29;;;;;;;6.60;4.60;;;;;;;0.89;79.52;98645.47;5025694;28;20334;-57
2022/04/07 00:27:55;;;;;;;5.53;4.97;;;;;;;0.98;79.58;98633.59;5025970;28;20034;-57
2022/04/07 00:30:21;;;;;;;6.18;5.15;;;;;;;0.85;80.42;98650.53;5014897;28;20331;-57
2022/04/07 00:32:48;;;;;;;9.05;4.75;;;;;;;0.89;80.51;98651.41;5041194;28;20029;-57
2022/04/07 00:35:14;;;;;;;6.03;4.90;;;;;;;0.92;80.12;98648.84;5024429;28;20030;-58
2022/04/07 00:37:40;;;;;;;6.38;4.75;;;;;;;0.95;80.70;98641.22;5025443;28;20094;-57
2022/04/07 00:40:08;;;;;;;5.60;4.40;;;;;;;0.98;80.07;98646.31;5024856;28;20024;-58
2022/04/07 00:42:34;;;;;;;5.82;4.45;;;;;;;0.88;80.44;98648.88;5028770;28;20025;-58
2022/04/07 00:45:04;;;;;;;5.38;4.28;;;;;;;0.99;80.40;98648.00;5037984;28;20394;-58
2022/04/07 00:47:29;;;;;;;6.68;4.80;;;;;;;0.92;80.12;98641.22;5025363;28;20029;-58
2022/04/07 00:49:55;;;;;;;9.38;4.50;;;;;;;1.05;80.15;98631.03;5023976;28;20026;-57
2022/04/07 00:52:21;;;;;;;5.13;4.32;;;;;;;1.19;79.60;98635.25;5025106;28;20033;-58
2022/04/07 00:54:48;;;;;;;5.70;4.00;;;;;;;1.26;79.50;98641.22;5030219;28;20033;-57
2022/04/07 00:57:14;;;;;;;5.53;4.13;;;;;;;1.15;78.90;98628.44;5043157;28;20101;-57
2022/04/07 00:59:40;;;;;;;5.88;4.47;;;;;;;1.00;80.51;98633.59;5025245;28;20303;-58
2022/04/07 01:02:06;;;;;;;5.30;4.30;;;;;;;1.11;79.92;98646.31;5024620;28;20033;-59
2022/04/07 01:04:33;;;;;;;5.93;4.30;;;;;;;0.98;80.05;98614.88;5036164;28;20023;-58
2022/04/07 01:06:58;;;;;;;4.72;4.18;;;;;;;1.12;79.55;98623.38;5053687;28;20056;-59
2022/04/07 01:09:24;;;;;;;6.50;4.35;;;;;;;1.20;78.99;98636.13;5024911;28;20030;-58
2022/04/07 01:11:52;;;;;;;7.40;4.53;;;;;;;1.28;79.41;98643.75;5006734;28;20038;-58
2022/04/07 01:14:18;;;;;;;5.30;4.05;;;;;;;1.08;79.60;98629.31;5022516;28;20093;-59
2022/04/07 01:16:43;;;;;;;7.35;4.45;;;;;;;1.18;79.52;98628.47;5024603;28;20253;-58
2022/04/07 01:19:09;;;;;;;6.60;4.35;;;;;;;1.08;80.25;98636.97;5024675;28;20029;-58
2022/04/07 01:21:37;;;;;;;5.82;4.18;;;;;;;1.09;79.57;98633.56;5028053;28;20060;-58
2022/04/07 01:24:08;;;;;;;6.22;4.78;;;;;;;0.96;80.26;98636.97;5044482;28;20113;-58
2022/04/07 01:26:37;;;;;;;7.03;4.60;;;;;;;1.14;80.26;98631.00;5025110;28;20073;-59
2022/04/07 01:29:03;;;;;;;6.80;4.35;;;;;;;0.97;80.36;98629.31;5038907;28;20029;-58
2022/04/07 01:31:29;;;;;;;5.10;4.10;;;;;;;1.04;80.66;98632.69;5033829;28;20053;-58
2022/04/07 01:33:57;;;;;;;8.55;4.18;;;;;;;0.68;80.16;98566.47;5023893;28;20341;-59
2022/04/07 01:36:23;;;;;;;6.70;4.53;;;;;;;1.18;80.47;98617.41;5024315;28;20092;-58
2022/04/07 01:38:49;;;;;;;7.10;4.22;;;;;;;1.08;79.14;98585.97;5024496;28;20224;-59
2022/04/07 01:41:16;;;;;;;7.95;4.32;;;;;;;1.32;78.88;98620.78;5024145;28;20026;-58
2022/04/07 01:43:42;;;;;;;6.57;4.45;;;;;;;1.35;79.05;98630.13;5024026;28;20033;-58
2022/04/07 01:46:12;;;;;;;6.78;4.40;;;;;;;1.33;79.38;98639.50;5038911;28;20104;-59
2022/04/07 01:48:38;;;;;;;6.53;4.38;;;;;;;1.35;79.27;98637.78;5040188;28;20092;-59
2022/04/07 01:51:03;;;;;;;5.90;4.90;;;;;;;1.09;80.10;98618.28;5024155;28;20076;-59
2022/04/07 01:53:29;;;;;;;5.78;4.72;;;;;;;1.11;79.72;98624.22;5024079;28;20238;-58
2022/04/07 01:55:55;;;;;;;6.15;4.90;;;;;;;1.25;79.19;98628.47;5024238;28;20029;-58
2022/04/07 01:58:22;;;;;;;7.22;4.90;;;;;;;1.31;79.45;98628.44;5024059;28;20067;-58
2022/04/07 02:00:47;;;;;;;5.85;4.75;;;;;;;1.33;79.03;98629.31;5028556;28;20029;-58
2022/04/07 02:03:13;;;;;;;5.80;5.03;;;;;;;1.36;79.01;98626.75;5027907;28;20210;-58
2022/04/07 02:05:38;;;;;;;6.40;5.13;;;;;;;1.47;79.00;98634.34;5003845;28;20088;-59
2022/04/07 02:08:04;;;;;;;8.00;5.43;;;;;;;1.23;79.28;98640.34;5017475;28;20022;-58
2022/04/07 02:10:32;;;;;;;5.20;4.40;;;;;;;1.23;79.53;98631.00;5014954;28;20049;-58
2022/04/07 02:12:58;;;;;;;6.70;5.20;;;;;;;1.36;78.98;98637.78;5008761;28;20334;-59
2022/04/07 02:15:28;;;;;;;5.68;4.88;;;;;;;1.30;78.97;98627.59;5023692;28;20341;-58
2022/04/07 02:17:54;;;;;;;8.18;4.57;;;;;;;1.21;79.34;98635.25;5023823;28;20030;-58
2022/04/07 02:20:20;;;;;;;6.70;4.85;;;;;;;1.29;79.70;98632.72;5023773;28;20021;-59
2022/04/07 02:22:46;;;;;;;9.27;4.72;;;;;;;1.05;80.82;98631.88;5023653;28;20032;-59
2022/04/07 02:25:11;;;;;;;5.28;4.57;;;;;;;1.10;80.46;98626.75;5023614;28;20029;-60
2022/04/07 02:27:39;;;;;;;7.63;6.00;;;;;;;0.74;80.28;98554.56;5026694;28;20025;-59
2022/04/07 02:30:07;;;;;;;9.20;5.63;;;;;;;0.87;79.91;98553.72;5031023;28;20223;-60
2022/04/07 02:32:33;;;;;;;9.23;5.82;;;;;;;1.38;80.46;98632.69;5022106;28;20081;-59
2022/04/07 02:34:58;;;;;;;7.57;5.63;;;;;;;1.48;79.68;98630.97;5036992;28;20037;-59
2022/04/07 02:37:25;;;;;;;8.07;6.43;;;;;;;1.40;79.37;98625.91;5033914;28;20207;-60
2022/04/07 02:39:52;;;;;;;9.40;6.60;;;;;;;1.33;79.20;98627.59;5021976;28;20327;-59
2022/04/07 02:42:18;;;;;;;8.63;6.05;;;;;;;1.45;79.22;98625.88;5023201;28;20076;-59
2022/04/07 02:44:43;;;;;;;8.85;5.97;;;;;;;1.37;79.34;98626.75;5023300;28;20041;-59
2022/04/07 02:47:09;;;;;;;7.80;5.07;;;;;;;1.42;79.33;98625.88;5002679;28;20223;-58
2022/04/07 02:49:46;;;;;;;7.70;5.85;;;;;;;1.28;79.30;98620.81;5014256;28;20298;-59
2022/04/07 02:52:12;;;;;;;8.18;5.88;;;;;;;1.42;79.35;98631.81;5022422;28;20021;-58
2022/04/07 02:54:38;;;;;;;7.80;6.22;;;;;;;1.24;80.02;98624.19;5024536;28;20286;-58
2022/04/07 02:57:04;;;;;;;7.35;5.40;;;;;;;1.45;79.34;98636.09;5042093;28;20321;-58
2022/04/07 02:59:31;;;;;;;7.53;5.72;;;;;;;1.46;79.41;98636.06;5024779;28;20253;-59
2022/04/07 03:01:58;;;;;;;6.53;5.40;;;;;;;1.31;79.17;98642.06;5022990;28;20068;-59
2022/04/07 03:04:24;;;;;;;7.93;5.57;;;;;;;1.36;79.87;98639.50;5032253;28;20092;-60
2022/04/07 03:06:51;;;;;;;6.35;5.00;;;;;;;1.39;79.78;98631.84;5038594;28;20079;-59
2022/04/07 03:09:18;;;;;;;7.28;5.50;;;;;;;1.16;79.47;98581.72;5023292;28;20022;-58
2022/04/07 03:11:45;;;;;;;7.03;6.03;;;;;;;1.55;79.28;98640.31;5022915;28;20199;-58
2022/04/07 03:14:12;;;;;;;7.97;6.18;;;;;;;1.62;79.37;98639.44;5038670;28;20048;-59
2022/04/07 03:16:38;;;;;;;8.10;5.53;;;;;;;1.69;78.83;98637.72;5041984;28;20090;-58
2022/04/07 03:19:03;;;;;;;8.30;6.03;;;;;;;1.67;78.95;98632.63;5036543;28;20246;-59
2022/04/07 03:21:29;;;;;;;10.45;5.82;;;;;;;1.61;79.03;98640.31;5024521;28;20026;-59
2022/04/07 03:23:54;;;;;;;6.60;5.82;;;;;;;1.43;79.31;98648.00;5042785;28;20318;-59
2022/04/07 03:26:20;;;;;;;9.27;6.80;;;;;;;1.52;79.42;98636.06;5042635;28;20028;-58
2022/04/07 03:28:45;;;;;;;8.95;6.40;;;;;;;1.60;79.75;98635.22;5030687;28;20029;-59
2022/04/07 03:31:11;;;;;;;8.27;6.45;;;;;;;1.61;79.40;98634.34;5022834;28;20083;-59
2022/04/07 03:33:36;;;;;;;8.18;6.55;;;;;;;1.58;79.49;98635.19;5021442;28;20026;-58
2022/04/07 03:36:02;;;;;;;9.55;6.03;;;;;;;1.77;79.64;98630.03;5023054;28;20315;-58
2022/04/07 03:38:28;;;;;;;9.88;6.80;;;;;;;1.49;80.10;98620.75;5023052;28;20034;-60
2022/04/07 03:40:53;;;;;;;8.45;6.90;;;;;;;1.45;80.43;98628.44;5022722;28;20323;-58
2022/04/07 03:43:19;;;;;;;10.85;7.50;;;;;;;1.60;80.48;98630.13;5021836;28;20342;-58
2022/04/07 03:45:44;;;;;;;10.05;7.55;;;;;;;1.43;81.14;98627.59;5034204;28;20041;-57
2022/04/07 03:48:10;;;;;;;10.93;7.28;;;;;;;1.75;80.19;98624.94;5042683;28;20033;-58
2022/04/07 03:50:36;;;;;;;9.88;7.63;;;;;;;1.82;79.58;98623.22;5023884;28;20037;-59
2022/04/07 03:53:01;;;;;;;8.82;6.60;;;;;;;1.93;79.75;98628.31;5033401;28;20033;-59
2022/04/07 03:55:27;;;;;;;9.52;7.00;;;;;;;1.94;79.42;98624.88;5035483;28;20084;-59
2022/04/07 03:57:53;;;;;;;11.57;7.80;;;;;;;1.86;79.34;98625.75;5038789;28;20044;-59
2022/04/07 04:00:19;;;;;;;11.88;8.07;;;;;;;1.79;78.95;98623.25;5007115;28;20291;-59
2022/04/07 04:02:45;;;;;;;13.23;7.70;;;;;;;1.63;80.03;98619.91;5022212;28;20097;-58
2022/04/07 04:05:11;;;;;;;9.82;7.22;;;;;;;1.73;80.10;98624.09;5021327;28;20325;-58
2022/04/07 04:07:37;;;;;;;12.57;8.65;;;;;;;1.95;79.75;98621.47;5036042;28;20218;-58
2022/04/07 04:10:03;;;;;;;12.00;7.50;;;;;;;1.95;79.28;98606.16;5057803;28;20026;-58
2022/04/07 04:12:29;;;;;;;10.63;7.88;;;;;;;2.04;79.13;98613.78;5027290;28;20317;-58
2022/04/07 04:14:54;;;;;;;8.90;6.85;;;;;;;2.15;78.69;98619.69;5045892;28;20029;-57
2022/04/07 04:17:20;;;;;;;9.73;7.05;;;;;;;2.30;78.73;98617.91;5044866;28;20021;-57
2022/04/07 04:19:45;;;;;;;10.57;6.82;;;;;;;2.11;78.42;98612.91;5028240;28;20224;-58
2022/04/07 04:22:11;;;;;;;10.15;7.35;;;;;;;2.13;78.88;98625.66;5025516;28;20271;-59
2022/04/07 04:24:36;;;;;;;12.30;6.93;;;;;;;2.36;78.65;98623.81;5010334;28;20093;-59
2022/04/07 04:27:02;;;;;;;9.27;6.93;;;;;;;2.36;78.79;98612.75;5025504;28;20373;-58
2022/04/07 04:29:28;;;;;;;14.43;7.30;;;;;;;2.13;78.72;98618.84;5025153;28;20068;-57
2022/04/07 04:31:53;;;;;;;10.70;6.68;;;;;;;2.15;78.67;98614.59;5024794;28;20223;-57
2022/04/07 04:34:19;;;;;;;12.77;7.15;;;;;;;2.15;79.81;98613.72;5025334;28;20029;-58
2022/04/07 04:36:44;;;;;;;11.50;6.75;;;;;;;2.18;78.96;98613.69;5028567;28;20063;-58
2022/04/07 04:39:10;;;;;;;11.00;6.40;;;;;;;1.92;78.95;98617.22;5042402;28;20065;-58
2022/04/07 04:41:35;;;;;;;8.05;5.93;;;;;;;2.12;79.16;98614.59;5019083;28;20033;-58
2022/04/07 04:44:01;;;;;;;8.70;6.32;;;;;;;2.12;78.42;98609.47;5019071;28;20034;-57
2022/04/07 04:46:28;;;;;;;8.93;6.20;;;;;;;2.08;78.64;98605.22;5036457;28;20037;-57
2022/04/07 04:48:54;;;;;;;12.20;7.15;;;;;;;2.32;78.21;98621.31;5019291;28;20034;-58
2022/04/07 04:51:19;;;;;;;10.43;6.22;;;;;;;2.50;77.96;98610.97;5016770;28;20015;-57
2022/04/07 04:53:45;;;;;;;9.30;7.07;;;;;;;2.61;77.35;98617.72;5016270;28;20030;-57
2022/04/07 04:56:11;;;;;;;9.80;6.57;;;;;;;2.34;77.43;98612.78;5016029;28;20326;-57
2022/04/07 04:58:36;;;;;;;10.45;6.38;;;;;;;2.46;76.79;98613.56;5018743;28;20033;-58
2022/04/07 05:01:03;;;;;;;9.30;6.38;;;;;;;2.35;76.39;98594.03;5017182;28;20022;-58
2022/04/07 05:03:28;;;;;;;7.43;5.25;;;;;;;2.69;74.87;98611.69;5048511;28;20021;-57
2022/04/07 05:05:54;;;;;;;9.48;5.60;;;;;;;2.63;74.55;98613.47;5016872;28;20025;-58
2022/04/07 05:08:20;;;;;;;10.05;5.15;;;;;;;2.69;74.13;98621.06;5016925;28;20211;-58
2022/04/07 05:10:45;;;;;;;7.32;4.90;;;;;;;2.73;74.07;98618.47;5018423;28;20022;-59
2022/04/07 05:13:11;;;;;;;7.80;4.30;;;;;;;2.61;73.05;98617.72;5018276;28;20265;-59
2022/04/07 05:15:39;;;;;;;8.00;4.93;;;;;;;2.49;73.49;98616.94;5012733;28;20026;-58
2022/04/07 05:18:04;;;;;;;6.10;3.97;;;;;;;2.72;73.57;98621.91;5024542;28;20068;-59
2022/04/07 05:20:30;;;;;;;5.18;3.65;;;;;;;2.89;73.31;98628.59;5014384;28;20034;-58
2022/04/07 05:22:55;;;;;;;6.63;3.97;;;;;;;2.96;73.08;98635.34;5030798;28;20048;-59
2022/04/07 05:25:21;;;;;;;5.53;4.20;;;;;;;3.09;73.79;98633.53;5034657;28;20063;-59
2022/04/07 05:27:47;;;;;;;8.70;4.47;;;;;;;3.06;73.42;98633.56;5022908;28;20029;-58
2022/04/07 05:30:15;;;;;;;5.93;3.92;;;;;;;2.75;73.71;98614.22;5023468;28;20038;-59
2022/04/07 05:32:45;;;;;;;6.03;4.25;;;;;;;2.68;74.66;98629.59;5023257;28;20140;-58
2022/04/07 05:35:11;;;;;;;5.57;4.18;;;;;;;2.71;74.41;98629.59;5037577;28;20069;-59
2022/04/07 05:37:37;;;;;;;5.50;4.20;;;;;;;2.81;75.11;98622.69;5033093;28;20076;-59
2022/04/07 05:40:03;;;;;;;8.50;4.57;;;;;;;2.71;74.86;98630.44;5028191;28;20025;-58
2022/04/07 05:42:29;;;;;;;6.55;4.78;;;;;;;2.66;75.25;98616.00;5023563;28;20026;-58
2022/04/07 05:44:55;;;;;;;5.82;3.95;;;;;;;2.59;75.48;98600.69;5023720;28;20046;-58
2022/04/07 05:47:21;;;;;;;7.40;4.70;;;;;;;2.97;75.94;98608.09;5023574;28;20096;-59
2022/04/07 05:49:46;;;;;;;5.13;4.20;;;;;;;2.54;76.93;98599.03;5019054;28;20038;-59
2022/04/07 05:52:12;;;;;;;7.07;4.85;;;;;;;2.72;78.36;98610.81;5021849;28;20117;-59
2022/04/07 05:54:37;;;;;;;5.20;4.32;;;;;;;2.49;78.11;98606.72;5022099;28;20353;-58
2022/04/07 05:57:03;;;;;;;6.38;3.97;;;;;;;2.36;79.75;98592.31;5023538;28;20036;-60
2022/04/07 05:59:29;;;;;;;7.97;4.28;;;;;;;2.30;80.02;98592.38;5023183;28;20104;-58
2022/04/07 06:01:54;;;;;;;7.05;4.20;;;;;;;2.32;80.50;98588.09;5021941;28;20033;-57
2022/04/07 06:04:20;;;;;;;7.18;4.38;;;;;;;2.21;81.04;98576.25;5018989;28;20207;-58
2022/04/07 06:06:46;;;;;;;8.77;4.85;;;;;;;2.43;81.18;98573.53;5009014;28;20034;-58
2022/04/07 06:09:11;;;;;;;10.57;5.00;;;;;;;2.46;81.32;98572.69;5043352;28;20029;-58
2022/04/07 06:11:37;;;;;;;5.55;4.53;;;;;;;2.54;80.90;98563.25;5026444;28;20038;-58
2022/04/07 06:14:03;;;;;;;7.85;5.35;;;;;;;2.49;81.64;98552.22;5035998;28;20025;-58
2022/04/07 06:16:28;;;;;;;5.20;4.70;;;;;;;2.37;81.48;98558.28;5031695;28;20361;-59
2022/04/07 06:18:54;;;;;;;11.52;7.07;;;;;;;2.41;81.76;98547.16;5026522;28;20242;-59
2022/04/07 06:21:23;;;;;;;6.45;5.10;;;;;;;2.45;81.32;98548.81;5043042;28;20060;-60
2022/04/07 06:23:49;;;;;;;9.43;6.22;;;;;;;2.39;82.39;98541.22;5034272;28;20030;-58
2022/04/07 06:26:15;;;;;;;8.93;6.10;;;;;;;2.51;83.74;98547.94;5016576;28;20029;-59
2022/04/07 06:28:42;;;;;;;7.95;6.07;;;;;;;2.38;82.76;98547.16;5012781;28;20026;-58
2022/04/07 06:31:08;;;;;;;8.48;6.72;;;;;;;2.61;82.31;98536.81;5017003;28;20263;-58
2022/04/07 06:33:34;;;;;;;7.45;6.38;;;;;;;2.33;82.51;98537.00;5022720;28;20056;-58
2022/04/07 06:36:01;;;;;;;9.18;6.38;;;;;;;2.54;82.83;98530.88;5023059;28;20022;-59
2022/04/07 06:38:26;;;;;;;7.90;6.43;;;;;;;2.69;81.77;98540.13;5022791;28;20029;-58
2022/04/07 06:40:52;;;;;;;7.32;6.28;;;;;;;2.42;81.96;98538.63;5026131;28;20103;-59
2022/04/07 06:43:19;;;;;;;9.23;6.10;;;;;;;2.54;82.56;98543.66;5009684;28;20026;-59
2022/04/07 06:45:44;;;;;;;7.82;6.35;;;;;;;2.55;83.11;98530.03;5017291;28;20270;-60
2022/04/07 06:48:11;;;;;;;7.00;5.65;;;;;;;1.80;83.33;98453.94;5010401;28;20034;-58
2022/04/07 06:50:37;;;;;;;8.68;5.90;;;;;;;2.39;83.83;98534.41;5020272;28;20037;-57
2022/04/07 06:53:02;;;;;;;7.53;6.05;;;;;;;2.45;83.58;98546.25;5022974;28;20323;-58
2022/04/07 06:55:28;;;;;;;7.60;5.15;;;;;;;2.23;83.58;98543.84;5013819;28;20349;-58
2022/04/07 06:57:56;;;;;;;6.97;6.10;;;;;;;2.40;84.26;98530.97;5006107;28;20184;-59
2022/04/07 07:00:26;;;;;;;7.53;5.93;;;;;;;2.36;84.37;98525.91;5011985;28;20022;-58
2022/04/07 07:02:53;;;;;;;9.18;6.50;;;;;;;2.39;83.90;98533.53;5019547;28;20376;-58
2022/04/07 07:05:20;;;;;;;7.80;6.30;;;;;;;2.38;84.22;98524.19;5053462;28;20053;-57
2022/04/07 07:07:46;;;;;;;7.38;5.43;;;;;;;2.26;84.13;98530.22;5032578;28;20038;-58
2022/04/07 07:10:12;;;;;;;7.65;6.22;;;;;;;2.40;83.96;98514.81;5023594;28;20022;-58
2022/04/07 07:12:38;;;;;;;10.60;6.18;;;;;;;2.52;83.79;98524.94;5016696;28;20072;-58
2022/04/07 07:15:04;;;;;;;5.75;5.10;;;;;;;2.55;83.69;98530.03;5016899;28;20034;-59
2022/04/07 07:17:33;;;;;;;7.72;5.07;;;;;;;2.26;83.42;98509.78;5014527;28;20065;-58
2022/04/07 07:20:11;;;;;;;6.32;5.25;;;;;;;2.56;83.35;98512.97;5011771;28;20323;-58
2022/04/07 07:22:41;;;;;;;6.40;4.18;;;;;;;2.44;82.67;98508.81;5012549;28;20045;-59
2022/04/07 07:25:08;;;;;;;14.40;8.85;;;;;;;2.29;83.96;98521.69;5011841;28;20050;-58
2022/04/07 07:27:42;;;;;;;8.02;4.43;;;;;;;2.26;84.11;98514.91;5013539;28;20032;-58
2022/04/07 07:30:09;;;;;;;7.30;4.95;;;;;;;2.50;84.13;98526.66;5023779;28;20334;-59
2022/04/07 07:32:36;;;;;;;6.80;4.25;;;;;;;2.59;83.29;98505.28;5018160;28;20192;-58
2022/04/07 07:35:02;;;;;;;4.72;4.30;;;;;;;2.65;83.75;98507.81;5019046;28;20360;-59
2022/04/07 07:37:28;;;;;;;6.40;4.72;;;;;;;2.75;83.13;98504.28;5021633;28;20030;-58
2022/04/07 07:39:54;;;;;;;7.55;3.60;;;;;;;2.32;83.95;98506.34;5021323;28;20033;-58
2022/04/07 07:42:19;;;;;;;4.93;4.30;;;;;;;2.34;84.66;98494.44;5017007;28;20022;-58
2022/04/07 07:44:45;;;;;;;4.53;4.13;;;;;;;2.32;84.81;98501.25;5020565;28;20046;-58
2022/04/07 07:47:10;;;;;;;5.18;4.38;;;;;;;2.34;84.62;98496.97;5021141;28;20022;-59
2022/04/07 07:49:36;;;;;;;6.70;4.47;;;;;;;2.39;84.75;98495.22;5019932;28;20064;-59
2022/04/07 07:52:02;;;;;;;5.22;4.70;;;;;;;2.28;84.91;98485.09;5016677;28;20307;-58
2022/04/07 07:54:28;;;;;;;6.55;5.45;;;;;;;2.41;84.69;98496.91;5019472;28;20327;-58
2022/04/07 07:56:54;;;;;;;5.43;4.45;;;;;;;2.54;84.44;98495.09;5010251;28;20038;-57
2022/04/07 07:59:20;;;;;;;6.97;5.25;;;;;;;2.44;84.56;98482.41;5017633;28;20022;-58
2022/04/07 08:01:48;;;;;;;6.10;4.53;;;;;;;2.52;84.57;98481.50;5019308;28;20030;-59
2022/04/07 08:04:15;;;;;;;7.75;4.95;;;;;;;2.40;85.55;98482.44;5021871;28;20377;-58
2022/04/07 08:06:41;;;;;;;7.03;5.63;;;;;;;2.43;85.45;98481.56;5011909;28;20022;-58
2022/04/07 08:09:09;;;;;;;6.82;5.20;;;;;;;2.57;85.76;98484.00;5009566;28;20078;-58
2022/04/07 08:11:35;;;;;;;7.75;5.50;;;;;;;2.55;84.77;98476.38;5022237;28;20032;-59
2022/04/07 08:14:01;;;;;;;7.82;5.60;;;;;;;2.63;85.14;98472.88;5037668;28;20017;-58
2022/04/07 08:16:29;;;;;;;8.48;5.82;;;;;;;2.54;85.65;98473.81;5026075;28;20033;-58
2022/04/07 08:18:55;;;;;;;7.13;5.50;;;;;;;2.72;85.11;98467.69;5028437;28;20033;-58
2022/04/07 08:21:20;;;;;;;10.35;6.45;;;;;;;2.70;84.87;98460.03;5045638;28;20109;-58
2022/04/07 08:23:46;;;;;;;10.25;7.20;;;;;;;2.73;84.70;98475.31;5044060;28;20022;-58
2022/04/07 08:26:12;;;;;;;12.95;7.65;;;;;;;2.46;85.42;98460.25;5027425;28;20033;-58
2022/04/07 08:28:37;;;;;;;9.57;7.63;;;;;;;2.67;86.04;98466.88;5024883;28;20060;-59
2022/04/07 08:31:03;;;;;;;14.40;7.93;;;;;;;2.39;85.87;98452.66;5040801;28;20036;-59
2022/04/07 08:33:28;;;;;;;12.18;8.52;;;;;;;2.62;86.59;98460.97;5025235;28;20026;-58
2022/04/07 08:35:54;;;;;;;11.95;8.60;;;;;;;2.60;85.92;98466.09;5025487;28;20041;-58
2022/04/07 08:38:20;;;;;;;9.13;7.72;;;;;;;2.57;86.44;98471.22;5024903;28;20022;-57
2022/04/07 08:40:50;;;;;;;12.82;8.48;;;;;;;2.71;86.63;98481.34;5025130;28;20067;-58
2022/04/07 08:43:16;;;;;;;9.20;7.95;;;;;;;2.83;86.26;98454.81;5025325;28;20033;-57
2022/04/07 08:45:43;;;;;;;10.35;8.50;;;;;;;2.68;86.93;98454.09;5036372;28;20069;-58
2022/04/07 08:48:11;;;;;;;11.23;9.38;;;;;;;2.45;86.58;98375.06;5045097;28;20238;-59
2022/04/07 08:50:40;;;;;;;9.75;8.75;;;;;;;2.79;86.52;98418.19;5045149;28;20073;-58
2022/04/07 08:53:06;;;;;;;11.95;8.82;;;;;;;3.07;85.79;98433.22;5032669;28;20026;-58
2022/04/07 08:55:33;;;;;;;11.90;8.90;;;;;;;2.92;86.47;98434.22;5025730;28;20037;-58
2022/04/07 08:58:00;;;;;;;13.90;9.85;;;;;;;2.75;86.80;98425.06;5025430;28;20033;-58
2022/04/07 09:00:26;;;;;;;12.52;9.85;;;;;;;2.72;87.88;98421.66;5026159;28;20044;-58
2022/04/07 09:02:53;;;;;;;12.43;10.35;;;;;;;2.84;87.43;98419.00;5023633;28;20033;-58
2022/04/07 09:05:24;;;;;;;13.02;9.65;;;;;;;2.71;88.00;98405.50;5024932;28;20026;-58
2022/04/07 09:07:55;;;;;;;17.80;11.13;;;;;;;2.57;88.40;98366.47;5026259;28;20103;-58
2022/04/07 09:10:22;;;;;;;12.57;9.82;;;;;;;2.66;88.55;98396.19;5027184;28;20042;-58
2022/04/07 09:12:48;;;;;;;17.23;10.68;;;;;;;2.74;89.08;98385.00;5025544;28;20072;-57
2022/04/07 09:15:14;;;;;;;13.02;10.52;;;;;;;2.90;88.98;98384.84;5040080;28;20045;-58
2022/04/07 09:17:56;;;;;;;16.42;11.00;;;;;;;2.42;88.83;98322.34;5024693;28;20038;-58
2022/04/07 09:20:22;;;;;;;12.13;10.30;;;;;;;2.98;88.51;98372.81;5024717;28;20021;-58
2022/04/07 09:22:58;;;;;;;13.60;10.90;;;;;;;3.23;87.76;98391.22;5024606;28;20223;-58
2022/04/07 09:25:25;;;;;;;15.48;10.70;;;;;;;3.20;88.63;98386.16;5024721;28;20053;-57
2022/04/07 09:27:51;;;;;;;15.68;10.48;;;;;;;3.40;87.60;98398.69;5024362;28;20353;-57
2022/04/07 09:30:17;;;;;;;15.73;10.45;;;;;;;3.39;87.51;98388.47;5024694;28;20033;-57
2022/04/07 09:32:45;;;;;;;15.02;11.23;;;;;;;3.32;87.39;98394.53;5018359;28;20026;-59
2022/04/07 09:35:11;;;;;;;21.60;12.18;;;;;;;3.53;87.02;98386.56;5020834;28;20220;-59
2022/04/07 09:37:40;;;;;;;15.88;10.60;;;;;;;3.57;87.17;98383.09;5020382;28;20026;-59
2022/04/07 09:40:12;;;;;;;17.10;11.32;;;;;;;3.52;86.75;98387.47;5015763;28;20034;-59
2022/04/07 09:42:41;;;;;;;15.63;10.73;;;;;;;3.43;87.35;98388.44;5013655;28;20017;-59
2022/04/07 09:45:11;;;;;;;14.85;10.98;;;;;;;3.48;87.80;98383.25;5018737;28;20239;-60
2022/04/07 09:47:45;;;;;;;15.38;11.93;;;;;;;3.50;87.40;98381.50;5024155;28;20092;-59
2022/04/07 09:50:31;;;;;;;18.55;11.70;;;;;;;3.44;87.73;98372.19;5023527;28;20088;-59
2022/04/07 09:53:04;;;;;;;13.88;11.45;;;;;;;3.41;87.87;98372.25;5030023;28;20080;-59
2022/04/07 09:55:35;;;;;;;17.25;11.35;;;;;;;3.14;87.82;98321.47;5020599;28;20064;-59
2022/04/07 09:58:03;;;;;;;15.45;10.85;;;;;;;3.43;87.97;98379.91;5014778;28;20041;-59
2022/04/07 10:00:30;;;;;;;16.70;11.82;;;;;;;3.59;87.92;98367.72;5017625;28;20033;-59
2022/04/07 10:02:57;;;;;;;16.45;12.25;;;;;;;3.48;87.42;98362.78;5019800;28;20068;-59
2022/04/07 10:05:23;;;;;;;15.80;11.40;;;;;;;3.53;88.05;98371.22;5037517;28;20070;-59
2022/04/07 10:07:50;;;;;;;18.02;11.85;;;;;;;3.54;87.92;98362.69;5013586;28;20033;-59
2022/04/07 10:10:18;;;;;;;18.42;12.88;;;;;;;3.62;87.19;98360.03;5023101;28;20029;-60
2022/04/07 10:12:45;;;;;;;18.88;12.05;;;;;;;3.30;87.64;98305.03;5023546;28;20038;-60
2022/04/07 10:15:11;;;;;;;15.27;11.60;;;;;;;3.74;87.61;98364.09;5023792;28;20085;-60
2022/04/07 10:17:38;;;;;;;18.70;11.98;;;;;;;3.78;87.21;98353.78;5023891;28;20037;-59
2022/04/07 10:20:11;;;;;;;16.60;10.98;;;;;;;3.44;87.04;98290.31;5023537;28;20251;-59
2022/04/07 10:23:01;;;;;;;16.77;12.13;;;;;;;3.84;87.42;98355.41;5031209;28;20096;-60
2022/04/07 10:25:29;;;;;;;16.15;11.43;;;;;;;4.04;86.48;98361.94;5035410;28;20069;-59
2022/04/07 10:27:59;;;;;;;18.95;12.27;;;;;;;3.95;86.43;98363.75;5015563;28;20289;-60
2022/04/07 10:30:29;;;;;;;17.40;12.00;;;;;;;4.05;86.31;98353.38;5016602;28;20029;-59
2022/04/07 10:32:58;;;;;;;19.75;12.43;;;;;;;4.18;85.99;98346.31;5016636;28;20042;-60
2022/04/07 10:35:29;;;;;;;21.05;12.63;;;;;;;4.24;86.29;98341.09;5047846;28;20037;-60
2022/04/07 10:37:57;;;;;;;18.08;12.18;;;;;;;4.13;85.21;98323.31;5016117;28;20047;-61
2022/04/07 10:40:37;;;;;;;16.85;11.43;;;;;;;4.30;86.08;98348.66;5022898;28;20044;-60
2022/04/07 10:43:18;;;;;;;16.75;12.35;;;;;;;4.28;85.81;98345.28;5023509;28;20045;-60
2022/04/07 10:45:46;;;;;;;18.88;12.75;;;;;;;4.13;86.40;98333.56;5034883;28;20041;-60
2022/04/07 10:48:19;;;;;;;16.63;12.05;;;;;;;4.37;86.05;98336.59;5043120;28;20135;-60
2022/04/07 10:50:50;;;;;;;19.35;12.20;;;;;;;4.14;85.34;98278.91;5042924;28;20045;-60
2022/04/07 10:53:22;;;;;;;18.85;12.43;;;;;;;4.30;85.56;98341.84;5030219;28;20030;-60
2022/04/07 10:56:05;;;;;;;20.02;12.50;;;;;;;4.45;85.96;98343.25;5017823;28;20041;-60
2022/04/07 10:58:54;;;;;;;19.77;13.35;;;;;;;4.35;85.68;98330.63;5046085;28;20027;-59
2022/04/07 11:01:28;;;;;;;17.23;12.40;;;;;;;4.59;84.97;98325.06;5016975;28;20097;-59
2022/04/07 11:04:16;;;;;;;20.67;12.88;;;;;;;4.81;84.98;98324.63;5017867;28;20018;-59
2022/04/07 11:07:07;;;;;;;19.55;14.05;;;;;;;4.81;84.59;98314.38;5017955;28;20282;-59
2022/04/07 11:09:54;;;;;;;19.63;13.68;;;;;;;4.80;83.91;98313.53;5018131;28;20069;-59
2022/04/07 11:12:34;;;;;;;16.20;12.32;;;;;;;5.01;83.77;98319.91;5017465;28;20041;-59
2022/04/07 11:15:03;;;;;;;16.17;11.85;;;;;;;5.16;83.58;98305.09;5018016;28;20089;-59
2022/04/07 11:17:43;;;;;;;17.90;12.85;;;;;;;5.25;83.94;98298.91;5026081;28;20030;-59
2022/04/07 11:20:16;;;;;;;20.75;13.50;;;;;;;5.25;83.39;98299.75;5027121;28;20025;-59
2022/04/07 11:22:56;;;;;;;22.90;13.57;;;;;;;5.38;83.25;98310.56;5025843;28;20390;-59
2022/04/07 11:25:29;;;;;;;19.13;13.13;;;;;;;5.05;82.46;98230.91;5016642;28;20022;-60
2022/04/07 11:28:13;;;;;;;20.00;13.35;;;;;;;5.16;82.63;98233.25;5016715;28;20076;-58
2022/04/07 11:31:04;;;;;;;22.08;13.43;;;;;;;5.35;83.41;98278.09;5018529;28;20075;-59
2022/04/07 11:33:39;;;;;;;19.10;12.73;;;;;;;5.53;83.13;98279.41;5025964;28;20030;-58
2022/04/07 11:36:06;;;;;;;20.45;13.15;;;;;;;5.72;82.34;98276.41;5026561;28;20022;-58
2022/04/07 11:38:36;;;;;;;16.80;12.80;;;;;;;5.21;82.12;98221.13;5026602;28;20029;-58